AGROMETEOROLOŠKI PORTAL
Vinorodna pokrajina

Temelj dobrega kmetovanja.

Pregled podatkov za lokacijo Hruševlje, meteorološka postaja 515412

Pregled senzorjev na lokaciji

ID Ime Zadnja
vrednost
Datum in čas
meritve
(lokalni čas)
Tip
senzorja
6549 Omočenost lista (1,5 m) (U) 0 U 20.4.2024 19:00 A730WET
6551 Padavine (mm) 0 mm 20.4.2024 19:00 Generic 0.2 mm
6553 Relativna zračna vlaga (2 m) (%RH) 64 %RH 20.4.2024 19:00 Generic 0 - 100 %
6552 Temperatura (2 m) (°C) 11,7 °C 20.4.2024 19:00 Generic -40 - +60 °C

Pregled podatkov zadnjih 24 ur

Zap.
št.
Datum in čas
(lokalni čas)
Hruševlje
Omočenost
lista
(1,5
m)
Padavine Relativna
zračna
vlaga
(2
m)
Temperatura
(2
m)
1 20.4.2024 19:00 0 0 63,7 11,7
2 20.4.2024 18:30 0 0 53,2 12,8
3 20.4.2024 18:00 0 0 47,3 13,8
4 20.4.2024 17:30 0 0 43 14,6
5 20.4.2024 17:00 0 0 42,7 14,8
6 20.4.2024 16:30 0 0 44,5 14,6
7 20.4.2024 16:00 0 0 50,8 13,5
8 20.4.2024 15:30 0 0 51,3 12,7
9 20.4.2024 15:00 0 0 52,8 12,2
10 20.4.2024 14:30 0 0 53,4 12,4
11 20.4.2024 14:00 0 0 51,4 12,9
12 20.4.2024 13:30 7 0 45,6 14,3
13 20.4.2024 13:00 0 0 41 16,4
14 20.4.2024 12:30 0 0 51,1 14,8
15 20.4.2024 12:00 9 0 51,9 14,2
16 20.4.2024 11:30 0 0 46,1 15,7
17 20.4.2024 11:00 0 0 47,5 15,9
18 20.4.2024 10:30 0 0 47,7 15
19 20.4.2024 10:00 0 0 53,8 14,3
20 20.4.2024 09:30 0 0 59,5 13,3
21 20.4.2024 09:00 0 0 64,6 12,2
22 20.4.2024 08:30 9 0 75,7 10,1
23 20.4.2024 08:00 10 0 86,7 7,5
24 20.4.2024 07:30 10 0 91,8 5,8
25 20.4.2024 07:00 10 0 93,6 4,5
26 20.4.2024 06:30 10 0 92,4 4,5
27 20.4.2024 06:00 10 0 92,4 4,6
28 20.4.2024 05:30 10 0 91,9 4,6
29 20.4.2024 05:00 10 0 90,6 4,8
30 20.4.2024 04:30 10 0 90,1 5
31 20.4.2024 04:00 10 0 91,1 4,6
32 20.4.2024 03:30 10 0 89,7 4,7
33 20.4.2024 03:00 10 0 88,3 5,2
34 20.4.2024 02:30 10 0 87,7 5,3
35 20.4.2024 02:00 10 0 88 5,3
36 20.4.2024 01:30 10 0 88,4 5
37 20.4.2024 01:00 10 0 89 5
38 20.4.2024 00:30 10 0 87,6 5,3
39 20.4.2024 00:00 10 0 85,8 5,8
40 19.4.2024 23:30 10 0 85,5 5,9
41 19.4.2024 23:00 8 0 84 6,3
42 19.4.2024 22:30 10 0 84,3 6,3
43 19.4.2024 22:00 9 0 83,3 6,8
44 19.4.2024 21:30 5 0 80,1 7,6
45 19.4.2024 21:00 2 0 74,8 8,7